createdAt,value
2023-05-18T00:00:37.228Z,147147.22
2023-05-18T00:01:41.293Z,147136.31
2023-05-18T00:02:43.937Z,147125.44
2023-05-18T00:03:47.496Z,147129.06
2023-05-18T00:04:49.955Z,147120.63
2023-05-18T00:05:52.182Z,147131.47
2023-05-18T00:06:58.660Z,147136.31
2023-05-18T00:08:01.661Z,147137.50
2023-05-18T00:09:04.023Z,147133.88
2023-05-18T00:10:07.348Z,147129.06
2023-05-18T00:11:09.603Z,147118.19
2023-05-18T00:12:11.740Z,147108.50
2023-05-18T00:13:13.951Z,147100.00
2023-05-18T00:14:16.211Z,147097.59
2023-05-18T00:15:18.531Z,147107.28
2023-05-18T00:16:20.852Z,147114.56
2023-05-18T00:17:23.555Z,147117.00
2023-05-18T00:18:26.535Z,147117.00
2023-05-18T00:19:30.027Z,147124.22
2023-05-18T00:20:32.367Z,147109.69
2023-05-18T00:21:36.145Z,147126.66
2023-05-18T00:22:42.852Z,147121.81
2023-05-18T00:23:49.587Z,147114.56
2023-05-18T00:24:52.742Z,147104.84
2023-05-18T00:25:55.052Z,147125.44
2023-05-18T00:26:57.229Z,147131.47
2023-05-18T00:27:59.402Z,147110.97
2023-05-18T00:29:01.579Z,147109.69
2023-05-18T00:30:06.307Z,147107.28
2023-05-18T00:31:08.562Z,147121.81
2023-05-18T00:32:10.767Z,147104.84
2023-05-18T00:33:12.900Z,147097.59
2023-05-18T00:34:16.214Z,147104.84
2023-05-18T00:35:18.425Z,147083.09
2023-05-18T00:36:20.609Z,147078.28
2023-05-18T00:37:22.818Z,147068.59
2023-05-18T00:38:25.163Z,147067.38
2023-05-18T00:39:27.357Z,147060.13
2023-05-18T00:40:30.056Z,147061.34
2023-05-18T00:41:32.798Z,147062.56
2023-05-18T00:42:35.607Z,147051.69
2023-05-18T00:43:41.381Z,147079.50
2023-05-18T00:44:43.630Z,147083.09
2023-05-18T00:45:46.074Z,147100.00
2023-05-18T00:46:48.460Z,147091.56
2023-05-18T00:47:50.891Z,147083.09
2023-05-18T00:48:54.672Z,147100.00
2023-05-18T00:49:56.837Z,147074.63
2023-05-18T00:50:59.058Z,147067.38
2023-05-18T00:52:02.768Z,147104.84
2023-05-18T00:53:05.021Z,147090.34
2023-05-18T00:54:08.274Z,147100.00
2023-05-18T00:55:12.524Z,147113.38
2023-05-18T00:56:15.650Z,147100.00
2023-05-18T00:57:19.124Z,147078.28
2023-05-18T00:58:21.336Z,147079.50
2023-05-18T00:59:23.535Z,147075.81
2023-05-18T01:00:28.413Z,147071.00
2023-05-18T01:01:36.533Z,147079.50
2023-05-18T01:02:42.766Z,147051.69
2023-05-18T01:03:45.265Z,147040.78
2023-05-18T01:04:47.503Z,147032.34
2023-05-18T01:05:55.786Z,147026.31
2023-05-18T01:06:58.537Z,147017.88
2023-05-18T01:08:03.074Z,147016.66
2023-05-18T01:09:09.082Z,147028.72
2023-05-18T01:10:13.364Z,147026.31
2023-05-18T01:11:26.106Z,147056.53
2023-05-18T01:12:36.277Z,147049.28
2023-05-18T01:13:54.212Z,147048.06
2023-05-18T01:15:03.526Z,147051.69
2023-05-18T01:16:09.925Z,147068.59
2023-05-18T01:17:33.572Z,147056.53
2023-05-18T01:18:46.962Z,147046.88
2023-05-18T01:19:51.906Z,147051.69
2023-05-18T01:21:31.540Z,147060.13
2023-05-18T01:22:59.036Z,147068.59
2023-05-18T01:24:04.902Z,147121.81
2023-05-18T01:25:26.647Z,147124.22
2023-05-18T01:26:31.681Z,147103.63
2023-05-18T01:27:37.657Z,147100.00
2023-05-18T01:28:41.121Z,147078.28
2023-05-18T01:29:46.010Z,147078.28
2023-05-18T01:30:48.840Z,147040.78
2023-05-18T01:31:51.298Z,147039.56
2023-05-18T01:32:54.300Z,147038.38
2023-05-18T01:33:56.526Z,147022.69
2023-05-18T01:34:58.719Z,147015.44
2023-05-18T01:36:01.224Z,147009.38
2023-05-18T01:37:03.472Z,147000.94
2023-05-18T01:38:05.705Z,147003.34
2023-05-18T01:39:09.471Z,147022.69
2023-05-18T01:40:12.962Z,147008.16
2023-05-18T01:41:24.263Z,147046.88
2023-05-18T01:42:30.379Z,147023.91
2023-05-18T01:43:37.841Z,147052.91
2023-05-18T01:44:45.451Z,147049.28
2023-05-18T01:45:51.242Z,147034.75
2023-05-18T01:47:13.007Z,147056.53
2023-05-18T01:48:20.688Z,147035.97
2023-05-18T01:49:25.738Z,147037.16
2023-05-18T01:50:39.006Z,147032.34
2023-05-18T01:51:45.779Z,147020.28
2023-05-18T01:53:22.862Z,147061.34
2023-05-18T01:54:26.810Z,147010.56
2023-05-18T01:55:31.633Z,147034.75
2023-05-18T01:56:35.724Z,147022.69
2023-05-18T01:57:41.416Z,147029.94
2023-05-18T01:58:44.498Z,147005.75
2023-05-18T01:59:47.413Z,147011.78
2023-05-18T02:00:50.534Z,147009.38
2023-05-18T02:01:59.416Z,147009.38
2023-05-18T02:03:02.677Z,147002.13
2023-05-18T02:04:09.665Z,147025.09
2023-05-18T02:05:14.827Z,146988.88
2023-05-18T02:06:17.465Z,146991.28
2023-05-18T02:07:19.954Z,146996.09
2023-05-18T02:08:22.125Z,146991.28
2023-05-18T02:09:24.357Z,146984.03
2023-05-18T02:10:26.687Z,146981.63
2023-05-18T02:11:28.875Z,146975.56
2023-05-18T02:12:31.062Z,146973.13
2023-05-18T02:13:33.276Z,146974.34
2023-05-18T02:14:35.562Z,146971.94
2023-05-18T02:15:37.822Z,146969.50
2023-05-18T02:16:40.054Z,146968.31
2023-05-18T02:17:42.271Z,146975.56
2023-05-18T02:18:44.900Z,146979.16
2023-05-18T02:19:47.316Z,146974.34
2023-05-18T02:20:51.138Z,147003.34
2023-05-18T02:21:53.469Z,147019.06
2023-05-18T02:22:55.863Z,147015.44
2023-05-18T02:23:58.143Z,147006.97
2023-05-18T02:25:01.699Z,147040.78
2023-05-18T02:26:07.204Z,147029.94
2023-05-18T02:27:13.037Z,147015.44
2023-05-18T02:28:18.082Z,147010.56
2023-05-18T02:29:23.457Z,147010.56
2023-05-18T02:30:29.357Z,147000.94
2023-05-18T02:31:36.370Z,146993.69
2023-05-18T02:32:41.404Z,146993.69
2023-05-18T02:33:45.518Z,146996.09
2023-05-18T02:34:53.639Z,147016.66
2023-05-18T02:35:57.245Z,146986.44
2023-05-18T02:37:03.679Z,146997.31
2023-05-18T02:38:05.862Z,146996.09
2023-05-18T02:39:08.708Z,147008.16
2023-05-18T02:40:12.673Z,147010.56
2023-05-18T02:41:15.918Z,147017.88
2023-05-18T02:42:18.122Z,147009.38
2023-05-18T02:43:20.457Z,146999.72
2023-05-18T02:44:22.618Z,147017.88
2023-05-18T02:45:24.821Z,147005.75
2023-05-18T02:46:28.002Z,146998.50
2023-05-18T02:47:30.408Z,146991.28
2023-05-18T02:48:33.689Z,146988.88
2023-05-18T02:49:35.974Z,146980.41
2023-05-18T02:50:38.502Z,146974.34
2023-05-18T02:51:40.811Z,146971.94
2023-05-18T02:52:45.489Z,146969.50
2023-05-18T02:53:47.953Z,146973.13
2023-05-18T02:54:54.644Z,146967.09
2023-05-18T02:56:04.867Z,146982.84
2023-05-18T02:57:16.818Z,146969.50
2023-05-18T02:58:34.129Z,146967.09
2023-05-18T02:59:44.087Z,146962.28
2023-05-18T03:00:48.881Z,146981.63
2023-05-18T03:01:51.188Z,146955.03
2023-05-18T03:02:53.858Z,146963.50
2023-05-18T03:03:59.861Z,146699.31
2023-05-18T03:05:03.413Z,146949.28
2023-05-18T03:06:09.211Z,146629.72
2023-05-18T03:07:11.512Z,146865.06
2023-05-18T03:08:14.377Z,146794.88
2023-05-18T03:09:16.649Z,146847.41
2023-05-18T03:10:21.152Z,146956.09
2023-05-18T03:11:24.488Z,146972.94
2023-05-18T03:12:26.736Z,146971.94
2023-05-18T03:13:29.062Z,146969.50
2023-05-18T03:14:31.333Z,146619.84
2023-05-18T03:15:33.570Z,146847.00
2023-05-18T03:16:38.800Z,146823.34
2023-05-18T03:17:44.527Z,146984.03
2023-05-18T03:18:47.909Z,146585.97
2023-05-18T03:19:51.377Z,146486.53
2023-05-18T03:20:53.589Z,146765.28
2023-05-18T03:21:57.876Z,146794.75
2023-05-18T03:23:00.176Z,146991.28
2023-05-18T03:24:03.266Z,146988.88
2023-05-18T03:25:07.842Z,146998.50
2023-05-18T03:26:11.778Z,146984.03
2023-05-18T03:27:16.662Z,146469.69
2023-05-18T03:28:19.358Z,146575.19
2023-05-18T03:29:21.642Z,147005.75
2023-05-18T03:30:23.897Z,147035.97
2023-05-18T03:31:26.365Z,147038.38
2023-05-18T03:32:31.917Z,147045.66
2023-05-18T03:33:34.320Z,147025.09
2023-05-18T03:34:37.214Z,147013.03
2023-05-18T03:35:40.795Z,147020.28
2023-05-18T03:36:47.287Z,147005.75
2023-05-18T03:37:49.908Z,147015.44
2023-05-18T03:38:52.154Z,147025.09
2023-05-18T03:39:55.681Z,147015.44
2023-05-18T03:40:58.150Z,147034.75
2023-05-18T03:42:00.913Z,147028.72
2023-05-18T03:43:03.119Z,147020.28
2023-05-18T03:44:05.715Z,147015.44
2023-05-18T03:45:08.996Z,147017.88
2023-05-18T03:46:11.474Z,147008.16
2023-05-18T03:47:14.224Z,147019.06
2023-05-18T03:48:16.436Z,147005.75
2023-05-18T03:49:18.628Z,147008.16
2023-05-18T03:50:21.318Z,147005.75
2023-05-18T03:51:23.709Z,147027.50
2023-05-18T03:52:26.145Z,147039.56
2023-05-18T03:53:29.558Z,147054.09
2023-05-18T03:54:32.832Z,147063.75
2023-05-18T03:55:35.187Z,147051.69
2023-05-18T03:56:37.412Z,147042.00
2023-05-18T03:57:39.652Z,147037.16
2023-05-18T03:58:42.493Z,147034.75
2023-05-18T03:59:46.030Z,147037.16
2023-05-18T04:00:49.527Z,147029.94
2023-05-18T04:01:53.950Z,147025.09
2023-05-18T04:02:57.865Z,147042.00
2023-05-18T04:04:01.272Z,147061.34
2023-05-18T04:05:04.091Z,147061.34
2023-05-18T04:06:06.922Z,147061.34
2023-05-18T04:07:09.146Z,147060.13
2023-05-18T04:08:14.403Z,147063.75
2023-05-18T04:09:18.423Z,147063.75
2023-05-18T04:10:22.010Z,147077.03
2023-05-18T04:11:24.198Z,147100.00
2023-05-18T04:12:26.377Z,147092.75
2023-05-18T04:13:28.788Z,147086.72
2023-05-18T04:14:33.124Z,147086.72
2023-05-18T04:15:38.064Z,147085.53
2023-05-18T04:16:41.625Z,147107.28
2023-05-18T04:17:45.687Z,147113.38
2023-05-18T04:18:48.364Z,147113.38
2023-05-18T04:19:50.691Z,147132.69
2023-05-18T04:20:53.167Z,147126.66
2023-05-18T04:21:55.342Z,147121.81
2023-05-18T04:22:57.571Z,147121.81
2023-05-18T04:24:02.946Z,147125.44
2023-05-18T04:25:05.534Z,147129.06
2023-05-18T04:26:09.066Z,147129.06
2023-05-18T04:27:12.216Z,147129.06
2023-05-18T04:28:14.614Z,147133.88
2023-05-18T04:29:17.402Z,147124.22
2023-05-18T04:30:22.556Z,147136.31
2023-05-18T04:31:29.418Z,147182.25
2023-05-18T04:32:36.564Z,147154.44
2023-05-18T04:33:39.859Z,147164.09
2023-05-18T04:34:42.569Z,147188.28
2023-05-18T04:35:44.778Z,147189.50
2023-05-18T04:36:47.912Z,147190.72
2023-05-18T04:37:50.214Z,147200.38
2023-05-18T04:38:53.497Z,147201.56
2023-05-18T04:39:55.729Z,147237.84
2023-05-18T04:41:00.419Z,147249.94
2023-05-18T04:42:04.555Z,147270.47
2023-05-18T04:43:08.395Z,147269.25
2023-05-18T04:44:10.707Z,147260.81
2023-05-18T04:45:19.186Z,147285.00
2023-05-18T04:46:24.697Z,147257.19
2023-05-18T04:47:30.145Z,147269.25
2023-05-18T04:48:32.554Z,147266.84
2023-05-18T04:49:36.997Z,147272.88
2023-05-18T04:50:40.110Z,147271.69
2023-05-18T04:51:43.387Z,147285.00
2023-05-18T04:52:50.387Z,147298.28
2023-05-18T04:53:55.725Z,147310.41
2023-05-18T04:54:57.949Z,147320.06
2023-05-18T04:56:02.377Z,147347.88
2023-05-18T04:57:04.987Z,147327.31
2023-05-18T04:58:07.230Z,147346.69
2023-05-18T04:59:10.781Z,147361.19
2023-05-18T05:00:13.437Z,147349.09
2023-05-18T05:01:16.028Z,147346.69
2023-05-18T05:02:18.598Z,147349.09
2023-05-18T05:03:20.848Z,147358.75
2023-05-18T05:04:23.915Z,147353.94
2023-05-18T05:05:27.097Z,147361.19
2023-05-18T05:06:29.632Z,147378.13
2023-05-18T05:07:32.339Z,147387.78
2023-05-18T05:08:35.083Z,147393.81
2023-05-18T05:09:37.319Z,147386.59
2023-05-18T05:10:39.612Z,147419.25
2023-05-18T05:11:42.118Z,147426.50
2023-05-18T05:12:46.030Z,147444.66
2023-05-18T05:13:49.073Z,147427.69
2023-05-18T05:14:51.483Z,147441.03
2023-05-18T05:15:55.673Z,147433.72
2023-05-18T05:16:57.859Z,147455.53
2023-05-18T05:18:00.159Z,147470.06
2023-05-18T05:19:02.596Z,147483.34
2023-05-18T05:20:05.478Z,147483.34
2023-05-18T05:21:09.422Z,147501.47
2023-05-18T05:22:11.676Z,147508.78
2023-05-18T05:23:14.092Z,147530.53
2023-05-18T05:24:17.925Z,147542.66
2023-05-18T05:25:21.598Z,147542.66
2023-05-18T05:26:23.851Z,147525.69
2023-05-18T05:27:26.318Z,147549.91
2023-05-18T05:28:28.557Z,147547.47
2023-05-18T05:29:30.868Z,147566.88
2023-05-18T05:30:33.136Z,147564.44
2023-05-18T05:31:35.414Z,147560.81
2023-05-18T05:32:37.923Z,147571.75
2023-05-18T05:33:41.970Z,147582.63
2023-05-18T05:34:46.836Z,147585.03
2023-05-18T05:35:49.374Z,147593.50
2023-05-18T05:36:51.664Z,147605.63
2023-05-18T05:37:53.861Z,147632.25
2023-05-18T05:38:56.034Z,147632.25
2023-05-18T05:39:58.298Z,147639.50
2023-05-18T05:41:00.716Z,147640.72
2023-05-18T05:42:02.958Z,147634.69
2023-05-18T05:43:06.275Z,147672.19
2023-05-18T05:44:08.691Z,147700.03
2023-05-18T05:45:11.170Z,147714.53
2023-05-18T05:46:22.908Z,147726.63
2023-05-18T05:47:25.331Z,147738.78
2023-05-18T05:48:28.819Z,147736.34
2023-05-18T05:49:31.248Z,147720.59
2023-05-18T05:50:34.241Z,147753.28
2023-05-18T05:51:37.716Z,147743.59
2023-05-18T05:52:40.231Z,147766.63
2023-05-18T05:53:43.561Z,147752.06
2023-05-18T05:54:45.797Z,147772.66
2023-05-18T05:55:48.029Z,147744.81
2023-05-18T05:56:52.275Z,147719.38
2023-05-18T05:57:55.087Z,147741.19
2023-05-18T05:58:57.447Z,147760.53
2023-05-18T05:59:59.672Z,147750.88
2023-05-18T06:01:02.533Z,147748.44
2023-05-18T06:02:05.078Z,147784.75
2023-05-18T06:03:07.990Z,147809.00
2023-05-18T06:04:12.980Z,147817.44
2023-05-18T06:05:15.552Z,147806.56
2023-05-18T06:06:17.747Z,147815.03
2023-05-18T06:07:20.156Z,147833.22
2023-05-18T06:08:24.342Z,147873.19
2023-05-18T06:09:27.066Z,147818.66
2023-05-18T06:10:31.164Z,147838.06
2023-05-18T06:11:33.478Z,147832.00
2023-05-18T06:12:35.663Z,147835.63
2023-05-18T06:13:38.094Z,147880.44
2023-05-18T06:14:40.712Z,147851.38
2023-05-18T06:15:44.031Z,147841.69
2023-05-18T06:16:46.306Z,147835.63
2023-05-18T06:17:48.941Z,147879.22
2023-05-18T06:18:51.904Z,147876.81
2023-05-18T06:19:54.643Z,147824.72
2023-05-18T06:20:57.355Z,147754.50
2023-05-18T06:21:59.603Z,147792.00
2023-05-18T06:23:03.666Z,147827.13
2023-05-18T06:24:41.126Z,147810.19
2023-05-18T06:26:03.606Z,147771.47
2023-05-18T06:27:08.748Z,147761.75
2023-05-18T06:28:20.228Z,147779.94
2023-05-18T06:29:26.200Z,147809.00
2023-05-18T06:30:44.030Z,147765.41
2023-05-18T06:31:57.830Z,147721.81
2023-05-18T06:33:10.811Z,147773.88
2023-05-18T06:34:13.188Z,147789.59
2023-05-18T06:35:16.048Z,147807.78
2023-05-18T06:36:18.558Z,147765.41
2023-05-18T06:37:21.408Z,147758.13
2023-05-18T06:38:23.915Z,147729.06
2023-05-18T06:39:26.394Z,147683.06
2023-05-18T06:40:28.714Z,147726.63
2023-05-18T06:41:31.294Z,147730.31
2023-05-18T06:42:34.031Z,147787.19
2023-05-18T06:43:56.455Z,147718.19
2023-05-18T06:44:59.636Z,147788.38
2023-05-18T06:46:34.385Z,147884.06
2023-05-18T06:47:38.943Z,147947.09
2023-05-18T06:48:43.691Z,147972.56
2023-05-18T06:49:46.037Z,147999.22
2023-05-18T06:50:48.270Z,148034.34
2023-05-18T06:51:50.625Z,147947.09
2023-05-18T06:52:53.360Z,147998.00
2023-05-18T06:53:55.602Z,148000.41
2023-05-18T06:54:58.076Z,147991.97
2023-05-18T06:56:00.972Z,148047.66
2023-05-18T06:57:03.373Z,148110.69
2023-05-18T06:58:06.490Z,148107.06
2023-05-18T06:59:09.002Z,148127.66
2023-05-18T07:00:12.565Z,148131.31
2023-05-18T07:01:15.204Z,148156.75
2023-05-18T07:02:17.905Z,148148.25
2023-05-18T07:03:20.202Z,148207.66
2023-05-18T07:04:22.798Z,148225.84
2023-05-18T07:05:25.050Z,148225.84
2023-05-18T07:06:28.041Z,148155.56
2023-05-18T07:07:30.409Z,148200.38
2023-05-18T07:08:32.980Z,148177.34
2023-05-18T07:09:35.254Z,148206.44
2023-05-18T07:10:37.603Z,148204.00
2023-05-18T07:11:40.576Z,148229.50
2023-05-18T07:12:42.885Z,148241.59
2023-05-18T07:13:45.130Z,148301.06
2023-05-18T07:14:47.331Z,148353.22
2023-05-18T07:15:49.641Z,148345.91
2023-05-18T07:16:51.875Z,148398.09
2023-05-18T07:17:54.112Z,148389.59
2023-05-18T07:18:57.938Z,148281.66
2023-05-18T07:20:00.209Z,148245.22
2023-05-18T07:21:02.486Z,148276.81
2023-05-18T07:22:04.751Z,148295.00
2023-05-18T07:23:07.338Z,148324.13
2023-05-18T07:24:09.571Z,148314.38
2023-05-18T07:25:11.744Z,148385.97
2023-05-18T07:26:13.966Z,148440.53
2023-05-18T07:27:16.237Z,148399.28
2023-05-18T07:28:18.531Z,148491.50
2023-05-18T07:29:21.081Z,148525.47
2023-05-18T07:30:23.832Z,148552.16
2023-05-18T07:31:27.743Z,148564.34
2023-05-18T07:32:30.040Z,148570.41
2023-05-18T07:33:32.906Z,148660.22
2023-05-18T07:34:35.477Z,148639.56
2023-05-18T07:35:37.777Z,148632.28
2023-05-18T07:36:39.965Z,148689.34
2023-05-18T07:37:42.617Z,148672.34
2023-05-18T07:38:45.136Z,148726.97
2023-05-18T07:39:47.356Z,148700.25
2023-05-18T07:40:49.583Z,148709.97
2023-05-18T07:41:51.789Z,148665.06
2023-05-18T07:42:54.036Z,148706.31
2023-05-18T07:43:56.548Z,148684.50
2023-05-18T07:44:58.866Z,148723.34
2023-05-18T07:46:01.064Z,148735.47
2023-05-18T07:47:03.545Z,148730.63
2023-05-18T07:48:07.798Z,148659.00
2023-05-18T07:49:10.068Z,148675.97
2023-05-18T07:50:12.302Z,148657.78
2023-05-18T07:51:14.677Z,148537.59
2023-05-18T07:52:17.088Z,148554.59
2023-05-18T07:53:19.280Z,148444.16
2023-05-18T07:54:21.700Z,148449.06
2023-05-18T07:55:23.956Z,148433.25
2023-05-18T07:56:26.237Z,148475.69
2023-05-18T07:57:29.858Z,148434.47
2023-05-18T07:58:32.067Z,148492.72
2023-05-18T07:59:34.252Z,148531.53
2023-05-18T08:00:37.287Z,148541.22
2023-05-18T08:01:39.971Z,148657.78
2023-05-18T08:02:43.206Z,148662.66
2023-05-18T08:03:45.682Z,148752.47
2023-05-18T08:04:48.329Z,148733.03
2023-05-18T08:05:50.495Z,148740.31
2023-05-18T08:06:54.893Z,148784.06
2023-05-18T08:07:57.081Z,148886.09
2023-05-18T08:08:59.247Z,148884.88
2023-05-18T08:10:01.554Z,148945.63
2023-05-18T08:11:05.124Z,148948.06
2023-05-18T08:12:07.876Z,148992.97
2023-05-18T08:13:10.373Z,148854.53
2023-05-18T08:14:12.557Z,148852.09
2023-05-18T08:15:14.691Z,148832.59
2023-05-18T08:16:16.944Z,148881.25
2023-05-18T08:17:19.775Z,148890.94
2023-05-18T08:18:22.594Z,148949.25
2023-05-18T08:19:25.953Z,149036.69
2023-05-18T08:20:30.164Z,149048.88
2023-05-18T08:21:33.120Z,149104.84
2023-05-18T08:22:35.401Z,149091.44
2023-05-18T08:23:38.389Z,149199.59
2023-05-18T08:24:40.696Z,149413.66
2023-05-18T08:25:42.834Z,149479.31
2023-05-18T08:26:45.132Z,149588.84
2023-05-18T08:27:47.333Z,149541.38
2023-05-18T08:28:49.543Z,149554.75
2023-05-18T08:29:51.727Z,149510.97
2023-05-18T08:30:53.935Z,149479.31
2023-05-18T08:31:56.458Z,149383.25
2023-05-18T08:32:58.717Z,149265.22
2023-05-18T08:34:01.422Z,149222.69
2023-05-18T08:35:08.447Z,149267.72
2023-05-18T08:36:11.491Z,149211.78
2023-05-18T08:37:13.685Z,149209.34
2023-05-18T08:38:16.938Z,149234.88
2023-05-18T08:39:19.226Z,149257.94
2023-05-18T08:40:21.554Z,149204.50
2023-05-18T08:41:30.006Z,149275.00
2023-05-18T08:42:50.542Z,149282.28
2023-05-18T08:44:09.877Z,149298.06
2023-05-18T08:45:30.678Z,149305.41
2023-05-18T08:46:34.443Z,149334.63
2023-05-18T08:47:37.790Z,149282.28
2023-05-18T08:48:42.262Z,149262.81
2023-05-18T08:49:45.616Z,149231.19
2023-05-18T08:50:49.643Z,149187.47
2023-05-18T08:51:57.657Z,149253.09
2023-05-18T08:53:06.185Z,149253.09
2023-05-18T08:54:10.652Z,149277.41
2023-05-18T08:55:13.713Z,149306.59
2023-05-18T08:56:16.760Z,149343.13
2023-05-18T08:57:22.196Z,149265.22
2023-05-18T08:58:41.493Z,149289.56
2023-05-18T08:59:44.763Z,149177.75
2023-05-18T09:00:47.086Z,149282.28
2023-05-18T09:01:50.619Z,149216.63
2023-05-18T09:02:53.378Z,149285.91
2023-05-18T09:03:57.966Z,149287.13
2023-05-18T09:05:01.184Z,149170.47
2023-05-18T09:06:04.644Z,149152.22
2023-05-18T09:07:07.882Z,149135.19
2023-05-18T09:08:10.784Z,149091.44
2023-05-18T09:09:14.329Z,149177.75
2023-05-18T09:10:17.854Z,149215.41
2023-05-18T09:11:25.403Z,149136.44
2023-05-18T09:12:28.560Z,149239.75
2023-05-18T09:13:31.332Z,149216.63
2023-05-18T09:14:33.753Z,149272.56
2023-05-18T09:15:36.016Z,149305.41
2023-05-18T09:16:38.566Z,149357.69
2023-05-18T09:17:40.857Z,149389.31
2023-05-18T09:18:43.231Z,149328.47
2023-05-18T09:19:45.486Z,149413.66
2023-05-18T09:20:48.179Z,149442.84
2023-05-18T09:21:50.616Z,149379.59
2023-05-18T09:22:53.008Z,149422.16
2023-05-18T09:23:55.639Z,149296.84
2023-05-18T09:24:58.044Z,149437.97
2023-05-18T09:26:00.876Z,149486.63
2023-05-18T09:27:03.861Z,149576.69
2023-05-18T09:28:06.312Z,149674.03
2023-05-18T09:29:20.059Z,149793.38
2023-05-18T09:30:22.530Z,149966.28
2023-05-18T09:31:26.655Z,149934.63
2023-05-18T09:32:29.753Z,150046.69
2023-05-18T09:33:40.622Z,150353.84
2023-05-18T09:34:43.045Z,150263.63
2023-05-18T09:35:48.190Z,150502.59
2023-05-18T09:36:52.887Z,150534.31
2023-05-18T09:37:55.227Z,150492.84
2023-05-18T09:38:58.539Z,150489.19
2023-05-18T09:40:04.781Z,150556.28
2023-05-18T09:41:11.322Z,150331.88
2023-05-18T09:42:13.585Z,150236.81
2023-05-18T09:43:21.486Z,150241.69
2023-05-18T09:44:36.711Z,150221.00
2023-05-18T09:45:46.774Z,150316.00
2023-05-18T09:46:49.121Z,150548.97
2023-05-18T09:47:52.685Z,150500.16
2023-05-18T09:48:55.117Z,150558.72
2023-05-18T09:49:57.899Z,150869.88
2023-05-18T09:51:00.180Z,151012.78
2023-05-18T09:52:02.872Z,151236.25
2023-05-18T09:53:09.781Z,151530.78
2023-05-18T09:54:12.170Z,151616.41
2023-05-18T09:55:18.558Z,151710.56
2023-05-18T09:56:21.528Z,151816.97
2023-05-18T09:57:23.822Z,151596.84
2023-05-18T09:58:26.628Z,151585.84
2023-05-18T09:59:30.428Z,151716.66
2023-05-18T10:00:37.201Z,151728.91
2023-05-18T10:01:56.490Z,151766.88
2023-05-18T10:02:59.387Z,152005.41
2023-05-18T10:04:05.470Z,151989.47
2023-05-18T10:05:23.101Z,151969.94
2023-05-18T10:06:27.376Z,151336.50
2023-05-18T10:07:29.637Z,151103.13
2023-05-18T10:08:32.880Z,151221.59
2023-05-18T10:09:35.057Z,151222.81
2023-05-18T10:10:39.762Z,151396.31
2023-05-18T10:11:42.018Z,151406.13
2023-05-18T10:12:44.365Z,151203.25
2023-05-18T10:13:47.128Z,151248.47
2023-05-18T10:14:49.434Z,151484.38
2023-05-18T10:15:55.005Z,151472.16
2023-05-18T10:17:07.276Z,151645.75
2023-05-18T10:18:24.425Z,151450.16
2023-05-18T10:19:28.359Z,151637.22
2023-05-18T10:20:32.459Z,151653.09
2023-05-18T10:21:37.269Z,151719.09
2023-05-18T10:22:40.824Z,151936.91
2023-05-18T10:23:46.646Z,152037.25
2023-05-18T10:24:54.568Z,152022.56
2023-05-18T10:25:57.600Z,152091.06
2023-05-18T10:27:03.071Z,152118.00
2023-05-18T10:28:07.826Z,152181.69
2023-05-18T10:29:11.041Z,152295.53
2023-05-18T10:30:14.819Z,152247.78
2023-05-18T10:31:17.253Z,152260.03
2023-05-18T10:32:22.928Z,152304.13
2023-05-18T10:33:29.706Z,152353.09
2023-05-18T10:34:36.281Z,152192.69
2023-05-18T10:35:39.004Z,152135.16
2023-05-18T10:36:42.814Z,152421.63
2023-05-18T10:37:50.331Z,151650.66
2023-05-18T10:38:53.954Z,151521.03
2023-05-18T10:39:58.451Z,151538.16
2023-05-18T10:41:01.613Z,151513.72
2023-05-18T10:42:06.095Z,151772.97
2023-05-18T10:43:08.283Z,151659.19
2023-05-18T10:44:10.626Z,151560.13
2023-05-18T10:45:14.088Z,151529.56
2023-05-18T10:46:16.852Z,151627.41
2023-05-18T10:47:20.718Z,151675.09
2023-05-18T10:48:24.269Z,151552.81
2023-05-18T10:49:28.035Z,151568.78
2023-05-18T10:50:32.038Z,151484.38
2023-05-18T10:51:35.650Z,151264.38
2023-05-18T10:52:38.233Z,151042.06
2023-05-18T10:53:43.797Z,151192.28
2023-05-18T10:54:46.602Z,151169.06
2023-05-18T10:55:49.705Z,151297.38
2023-05-18T10:56:53.776Z,151312.06
2023-05-18T10:57:59.991Z,151303.47
2023-05-18T10:59:03.592Z,151335.22
2023-05-18T11:00:09.173Z,151359.69
2023-05-18T11:01:12.752Z,151506.38
2023-05-18T11:02:18.617Z,151667.78
2023-05-18T11:03:22.303Z,151772.97
2023-05-18T11:04:27.040Z,151714.22
2023-05-18T11:05:29.379Z,151775.41
2023-05-18T11:06:33.678Z,152010.28
2023-05-18T11:07:37.078Z,151905.09
2023-05-18T11:08:49.872Z,151873.31
2023-05-18T11:09:52.281Z,151848.78
2023-05-18T11:11:03.148Z,151990.69
2023-05-18T11:12:12.291Z,152099.66
2023-05-18T11:13:15.456Z,152099.66
2023-05-18T11:14:31.260Z,152218.41
2023-05-18T11:15:55.602Z,152238.00
2023-05-18T11:17:18.330Z,152451.09
2023-05-18T11:18:26.744Z,151934.47
2023-05-18T11:19:31.213Z,151814.53
2023-05-18T11:20:33.496Z,151746.06
2023-05-18T11:21:36.044Z,151753.38
2023-05-18T11:22:52.087Z,151599.28
2023-05-18T11:24:29.907Z,151362.13
2023-05-18T11:25:35.042Z,151298.59
2023-05-18T11:26:41.335Z,151532.00
2023-05-18T11:27:43.623Z,151489.25
2023-05-18T11:28:48.913Z,151649.44
2023-05-18T11:29:57.752Z,151831.69
2023-05-18T11:31:06.399Z,151907.53
2023-05-18T11:32:32.668Z,152122.88
2023-05-18T11:33:36.626Z,152012.75
2023-05-18T11:34:49.934Z,152186.56
2023-05-18T11:36:01.060Z,152170.69
2023-05-18T11:37:03.322Z,152180.47
2023-05-18T11:38:08.637Z,152220.84
2023-05-18T11:39:11.479Z,152235.56
2023-05-18T11:40:44.401Z,152416.75
2023-05-18T11:41:59.094Z,152250.22
2023-05-18T11:43:01.374Z,152110.66
2023-05-18T11:44:16.045Z,151801.09
2023-05-18T11:45:18.451Z,151631.06
2023-05-18T11:46:21.972Z,151731.38
2023-05-18T11:47:31.501Z,151821.88
2023-05-18T11:48:34.138Z,151868.38
2023-05-18T11:49:42.524Z,151535.72
2023-05-18T11:50:46.991Z,151535.72
2023-05-18T11:52:07.002Z,151382.91
2023-05-18T11:53:16.127Z,151524.69
2023-05-18T11:54:18.380Z,151584.63
2023-05-18T11:55:21.348Z,151568.78
2023-05-18T11:56:26.271Z,151598.06
2023-05-18T11:57:34.437Z,151514.94
2023-05-18T11:58:37.290Z,151561.34
2023-05-18T11:59:44.949Z,151574.88
2023-05-18T12:00:48.960Z,151724.03
2023-05-18T12:01:51.346Z,151242.38
2023-05-18T12:02:56.720Z,151205.75
2023-05-18T12:03:59.483Z,151380.47
2023-05-18T12:05:07.074Z,151342.59
2023-05-18T12:06:09.492Z,151261.94
2023-05-18T12:07:12.655Z,151068.91
2023-05-18T12:08:19.240Z,151050.59
2023-05-18T12:09:21.778Z,151093.38
2023-05-18T12:10:24.230Z,151164.19
2023-05-18T12:11:26.720Z,151154.44
2023-05-18T12:12:29.046Z,151027.41
2023-05-18T12:13:31.785Z,151076.25
2023-05-18T12:14:35.378Z,150948.06
2023-05-18T12:15:38.067Z,151035.94
2023-05-18T12:16:40.586Z,151103.13